createdAt,value
2023-03-01T00:01:36.549Z,155.80
2023-03-01T00:04:04.640Z,142.20
2023-03-01T00:06:32.974Z,154.20
2023-03-01T00:09:01.189Z,171.30
2023-03-01T00:11:31.743Z,131.40
2023-03-01T00:14:06.147Z,230.00
2023-03-01T00:16:46.736Z,149.50
2023-03-01T00:19:17.954Z,120.20
2023-03-01T00:21:46.474Z,127.90
2023-03-01T00:24:14.738Z,152.90
2023-03-01T00:26:42.604Z,148.10
2023-03-01T00:29:10.763Z,148.90
2023-03-01T00:31:38.687Z,145.10
2023-03-01T00:34:07.409Z,145.70
2023-03-01T00:36:37.593Z,180.70
2023-03-01T00:39:10.934Z,167.70
2023-03-01T00:41:39.045Z,119.70
2023-03-01T00:44:06.990Z,105.30
2023-03-01T00:46:37.649Z,125.30
2023-03-01T00:49:06.224Z,123.90
2023-03-01T00:51:34.604Z,387.40
2023-03-01T00:54:03.663Z,557.70
2023-03-01T00:56:32.443Z,308.50
2023-03-01T00:59:01.664Z,315.70
2023-03-01T01:01:31.909Z,221.90
2023-03-01T01:04:04.881Z,334.00
2023-03-01T01:06:36.523Z,246.60
2023-03-01T01:09:06.759Z,178.40
2023-03-01T01:11:36.492Z,190.00
2023-03-01T01:14:05.742Z,185.40
2023-03-01T01:16:34.415Z,167.40
2023-03-01T01:19:03.804Z,157.60
2023-03-01T01:21:32.177Z,156.30
2023-03-01T01:24:00.276Z,173.30
2023-03-01T01:26:31.618Z,169.30
2023-03-01T01:29:00.924Z,172.70
2023-03-01T01:31:29.852Z,122.70
2023-03-01T01:34:01.445Z,130.20
2023-03-01T01:36:29.927Z,145.40
2023-03-01T01:38:58.952Z,157.20
2023-03-01T01:41:29.290Z,177.20
2023-03-01T01:44:22.040Z,277.80
2023-03-01T01:46:51.851Z,125.10
2023-03-01T01:49:38.623Z,155.40
2023-03-01T01:52:21.726Z,124.40
2023-03-01T01:54:56.126Z,109.90
2023-03-01T01:57:33.907Z,115.80
2023-03-01T02:00:07.986Z,117.90
2023-03-01T02:02:44.388Z,129.60
2023-03-01T02:05:23.562Z,151.70
2023-03-01T02:07:52.095Z,143.10
2023-03-01T02:10:23.957Z,132.30
2023-03-01T02:12:53.596Z,137.50
2023-03-01T02:15:21.447Z,134.30
2023-03-01T02:17:49.885Z,136.30
2023-03-01T02:20:20.514Z,148.80
2023-03-01T02:22:49.831Z,143.70
2023-03-01T02:25:20.793Z,140.40
2023-03-01T02:28:17.001Z,136.10
2023-03-01T02:31:08.258Z,138.90
2023-03-01T02:33:38.826Z,148.60
2023-03-01T02:36:12.655Z,151.40
2023-03-01T02:38:42.246Z,141.10
2023-03-01T02:41:14.423Z,152.20
2023-03-01T02:43:43.077Z,168.50
2023-03-01T02:46:21.206Z,161.80
2023-03-01T02:48:52.009Z,135.10
2023-03-01T02:51:23.055Z,126.30
2023-03-01T02:54:06.300Z,131.70
2023-03-01T02:56:34.991Z,127.50
2023-03-01T02:59:04.865Z,129.20
2023-03-01T03:01:39.356Z,128.10
2023-03-01T03:04:12.987Z,143.60
2023-03-01T03:06:40.949Z,155.00
2023-03-01T03:09:09.165Z,153.70
2023-03-01T03:11:38.009Z,150.00
2023-03-01T03:14:06.869Z,139.80
2023-03-01T03:16:34.774Z,136.00
2023-03-01T03:19:06.162Z,154.50
2023-03-01T03:21:34.861Z,141.60
2023-03-01T03:24:02.985Z,135.10
2023-03-01T03:26:31.830Z,141.10
2023-03-01T03:28:59.949Z,145.10
2023-03-01T03:31:28.086Z,145.20
2023-03-01T03:33:56.949Z,142.70
2023-03-01T03:36:25.469Z,134.70
2023-03-01T03:38:53.733Z,148.80
2023-03-01T03:41:21.798Z,141.50
2023-03-01T03:43:50.130Z,139.90
2023-03-01T03:46:18.179Z,150.80
2023-03-01T03:48:46.893Z,144.80
2023-03-01T03:51:17.600Z,151.70
2023-03-01T03:53:46.671Z,141.90
2023-03-01T03:56:15.101Z,147.60
2023-03-01T03:58:43.048Z,141.10
2023-03-01T04:01:10.938Z,145.80
2023-03-01T04:03:38.903Z,136.80
2023-03-01T04:06:07.118Z,135.10
2023-03-01T04:08:35.151Z,135.40
2023-03-01T04:11:25.165Z,154.90
2023-03-01T04:13:56.137Z,153.40
2023-03-01T04:16:24.572Z,198.50
2023-03-01T04:18:54.653Z,164.20
2023-03-01T04:21:22.996Z,196.90
2023-03-01T04:23:53.666Z,158.70
2023-03-01T04:26:21.980Z,170.00
2023-03-01T04:28:51.473Z,200.00
2023-03-01T04:31:22.640Z,196.40
2023-03-01T04:33:56.397Z,170.20
2023-03-01T04:36:29.568Z,150.80
2023-03-01T04:38:58.593Z,149.30
2023-03-01T04:41:27.044Z,196.60
2023-03-01T04:43:55.159Z,256.30
2023-03-01T04:46:23.454Z,228.10
2023-03-01T04:48:51.435Z,162.10
2023-03-01T04:51:19.613Z,161.60
2023-03-01T04:53:48.524Z,162.70
2023-03-01T04:56:18.845Z,160.70
2023-03-01T04:58:47.669Z,150.20
2023-03-01T05:01:18.404Z,207.70
2023-03-01T05:03:51.635Z,214.20
2023-03-01T05:06:21.431Z,168.70
2023-03-01T05:08:50.414Z,136.30
2023-03-01T05:11:18.309Z,130.50
2023-03-01T05:13:46.367Z,145.50
2023-03-01T05:16:14.345Z,147.00
2023-03-01T05:18:42.641Z,145.20
2023-03-01T05:21:18.279Z,126.40
2023-03-01T05:23:46.322Z,120.60
2023-03-01T05:26:28.221Z,121.20
2023-03-01T05:28:57.942Z,125.40
2023-03-01T05:31:26.005Z,123.70
2023-03-01T05:33:54.094Z,124.70
2023-03-01T05:36:22.073Z,122.70
2023-03-01T05:38:49.919Z,119.70
2023-03-01T05:41:20.506Z,119.00
2023-03-01T05:43:48.426Z,123.00
2023-03-01T05:46:16.619Z,121.00
2023-03-01T05:48:44.878Z,119.70
2023-03-01T05:51:13.234Z,120.70
2023-03-01T05:53:41.203Z,119.20
2023-03-01T05:56:09.262Z,120.30
2023-03-01T05:58:39.719Z,117.70
2023-03-01T06:01:13.331Z,112.60
2023-03-01T06:03:41.345Z,114.10
2023-03-01T06:06:09.182Z,107.20
2023-03-01T06:08:37.005Z,114.70
2023-03-01T06:11:06.323Z,113.10
2023-03-01T06:13:34.250Z,118.70
2023-03-01T06:16:05.074Z,113.10
2023-03-01T06:18:33.334Z,110.20
2023-03-01T06:21:01.340Z,119.80
2023-03-01T06:23:29.438Z,122.40
2023-03-01T06:25:57.481Z,129.00
2023-03-01T06:28:25.454Z,151.10
2023-03-01T06:30:53.756Z,145.30
2023-03-01T06:33:23.068Z,130.40
2023-03-01T06:35:51.677Z,116.40
2023-03-01T06:38:20.112Z,116.60
2023-03-01T06:40:55.042Z,110.10
2023-03-01T06:43:24.566Z,101.20
2023-03-01T06:45:52.451Z,108.70
2023-03-01T06:48:20.414Z,126.90
2023-03-01T06:50:48.460Z,151.80
2023-03-01T06:53:16.421Z,127.40
2023-03-01T06:55:44.744Z,121.20
2023-03-01T06:58:12.898Z,102.80
2023-03-01T07:00:42.011Z,101.70
2023-03-01T07:03:10.105Z,99.20
2023-03-01T07:05:39.168Z,93.20
2023-03-01T07:08:07.431Z,90.30
2023-03-01T07:10:35.463Z,94.80
2023-03-01T07:13:03.451Z,94.10
2023-03-01T07:15:31.246Z,93.90
2023-03-01T07:17:59.443Z,96.50
2023-03-01T07:20:27.453Z,97.00
2023-03-01T07:22:57.498Z,103.00
2023-03-01T07:25:26.014Z,103.90
2023-03-01T07:27:55.022Z,98.80
2023-03-01T07:30:23.628Z,105.00
2023-03-01T07:32:53.547Z,101.80
2023-03-01T07:35:24.388Z,102.30
2023-03-01T07:37:52.729Z,105.00
2023-03-01T07:40:20.978Z,106.00
2023-03-01T07:42:48.935Z,106.00
2023-03-01T07:45:16.915Z,99.40
2023-03-01T07:47:44.855Z,94.70
2023-03-01T07:50:14.485Z,99.30
2023-03-01T07:52:42.381Z,96.90
2023-03-01T07:55:10.543Z,92.40
2023-03-01T07:57:39.460Z,88.60
2023-03-01T08:00:08.931Z,92.50
2023-03-01T08:02:43.113Z,88.90
2023-03-01T08:05:11.670Z,90.00
2023-03-01T08:07:39.547Z,89.60
2023-03-01T08:10:08.057Z,88.20
2023-03-01T08:12:36.188Z,100.50
2023-03-01T08:15:04.699Z,71.30
2023-03-01T08:17:32.660Z,67.50
2023-03-01T08:20:00.501Z,74.20
2023-03-01T08:22:28.335Z,170.60
2023-03-01T08:24:56.904Z,110.10
2023-03-01T08:27:25.631Z,82.80
2023-03-01T08:29:53.691Z,80.20
2023-03-01T08:32:21.988Z,82.60
2023-03-01T08:34:50.026Z,106.40
2023-03-01T08:37:18.099Z,86.20
2023-03-01T08:39:53.518Z,67.40
2023-03-01T08:42:21.401Z,66.50
2023-03-01T08:44:49.475Z,69.30
2023-03-01T08:47:18.584Z,64.60
2023-03-01T08:49:46.393Z,61.70
2023-03-01T08:52:14.445Z,61.00
2023-03-01T08:54:42.288Z,56.60
2023-03-01T08:57:10.789Z,55.10
2023-03-01T08:59:38.739Z,51.30
2023-03-01T09:02:13.506Z,16.00
2023-03-01T09:04:41.758Z,13.50
2023-03-01T09:07:11.094Z,11.10
2023-03-01T09:09:38.981Z,14.10
2023-03-01T09:12:07.223Z,19.60
2023-03-01T09:14:35.298Z,157.00
2023-03-01T09:17:04.201Z,71.90
2023-03-01T09:19:32.529Z,49.10
2023-03-01T09:22:00.544Z,9.90
2023-03-01T09:24:28.576Z,8.80
2023-03-01T09:26:58.052Z,56.60
2023-03-01T09:29:26.983Z,119.70
2023-03-01T09:31:56.501Z,97.10
2023-03-01T09:34:24.902Z,134.20
2023-03-01T09:36:53.099Z,91.30
2023-03-01T09:39:21.818Z,37.70
2023-03-01T09:42:05.669Z,12.50
2023-03-01T09:44:34.393Z,185.30
2023-03-01T09:47:03.689Z,196.70
2023-03-01T09:49:35.040Z,74.50
2023-03-01T09:52:20.313Z,114.80
2023-03-01T09:54:54.090Z,52.70
2023-03-01T09:57:42.523Z,34.40
2023-03-01T10:00:17.714Z,26.80
2023-03-01T10:03:29.957Z,11.00
2023-03-01T10:06:02.157Z,28.10
2023-03-01T10:08:48.863Z,74.80
2023-03-01T10:11:35.433Z,37.40
2023-03-01T10:14:20.749Z,19.20
2023-03-01T10:16:59.928Z,23.00
2023-03-01T10:19:33.563Z,9.20
2023-03-01T10:22:12.382Z,8.90
2023-03-01T10:24:40.398Z,9.90
2023-03-01T10:27:21.062Z,31.40
2023-03-01T10:30:22.127Z,21.40
2023-03-01T10:32:54.203Z,9.80
2023-03-01T10:35:26.093Z,29.60
2023-03-01T10:38:05.855Z,36.90
2023-03-01T10:40:35.685Z,31.50
2023-03-01T10:43:07.459Z,14.40
2023-03-01T10:45:40.642Z,11.10
2023-03-01T10:48:27.100Z,13.40
2023-03-01T10:51:01.181Z,9.20
2023-03-01T10:53:37.637Z,8.30
2023-03-01T10:56:07.405Z,11.20
2023-03-01T10:58:37.859Z,8.10
2023-03-01T11:01:16.541Z,8.40
2023-03-01T11:03:44.610Z,21.90
2023-03-01T11:06:12.436Z,13.10
2023-03-01T11:08:49.126Z,8.00
2023-03-01T11:11:36.098Z,9.60
2023-03-01T11:14:27.280Z,50.90
2023-03-01T11:17:12.966Z,15.70
2023-03-01T11:19:41.147Z,28.70
2023-03-01T11:22:22.281Z,8.70
2023-03-01T11:25:08.811Z,7.20
2023-03-01T11:27:43.049Z,9.20
2023-03-01T11:30:46.554Z,22.10
2023-03-01T11:33:38.279Z,10.40
2023-03-01T11:36:12.415Z,9.00
2023-03-01T11:38:40.804Z,18.50
2023-03-01T11:41:19.513Z,12.80
2023-03-01T11:43:50.688Z,11.10
2023-03-01T11:46:41.841Z,7.90
2023-03-01T11:49:31.626Z,7.70
2023-03-01T11:52:18.075Z,7.10
2023-03-01T11:54:54.996Z,16.10
2023-03-01T11:57:37.759Z,31.90
2023-03-01T12:00:32.456Z,8.50
2023-03-01T12:03:03.387Z,7.70
2023-03-01T12:05:40.219Z,18.10
2023-03-01T12:08:26.646Z,41.60
2023-03-01T12:11:27.884Z,18.40
2023-03-01T12:14:09.248Z,67.00
2023-03-01T12:16:40.560Z,115.90
2023-03-01T12:19:31.960Z,54.90
2023-03-01T12:22:10.278Z,17.00
2023-03-01T12:24:47.388Z,58.00
2023-03-01T12:27:41.482Z,41.40
2023-03-01T12:30:27.540Z,30.00
2023-03-01T12:33:20.193Z,21.30
2023-03-01T12:36:22.511Z,37.10
2023-03-01T12:39:00.434Z,118.60
2023-03-01T12:41:34.285Z,23.10
2023-03-01T12:44:05.086Z,21.80
2023-03-01T12:46:48.624Z,17.00
2023-03-01T12:49:22.364Z,11.30
2023-03-01T12:52:35.335Z,14.60
2023-03-01T12:55:09.824Z,15.00
2023-03-01T12:57:48.370Z,49.90
2023-03-01T13:00:31.884Z,29.40
2023-03-01T13:03:22.001Z,28.40
2023-03-01T13:06:18.063Z,52.10
2023-03-01T13:08:56.224Z,16.30
2023-03-01T13:11:25.113Z,16.50
2023-03-01T13:13:55.554Z,22.70
2023-03-01T13:16:44.088Z,38.50
2023-03-01T13:19:18.165Z,12.30
2023-03-01T13:21:47.966Z,7.30
2023-03-01T13:24:28.044Z,5.60
2023-03-01T13:27:08.162Z,6.20
2023-03-01T13:29:45.143Z,6.60
2023-03-01T13:32:37.888Z,7.50
2023-03-01T13:35:17.971Z,5.90
2023-03-01T13:37:46.828Z,17.40
2023-03-01T13:40:19.562Z,8.40
2023-03-01T13:43:05.594Z,12.30
2023-03-01T13:45:41.241Z,6.70
2023-03-01T13:48:15.965Z,14.60
2023-03-01T13:50:52.561Z,8.90
2023-03-01T13:53:24.223Z,8.70
2023-03-01T13:55:58.740Z,7.40
2023-03-01T13:58:34.092Z,7.10
2023-03-01T14:01:03.504Z,7.30
2023-03-01T14:03:34.029Z,13.70
2023-03-01T14:06:14.964Z,15.30
2023-03-01T14:08:46.259Z,32.60
2023-03-01T14:11:14.301Z,22.70
2023-03-01T14:14:03.908Z,11.00
2023-03-01T14:16:53.834Z,11.10
2023-03-01T14:19:35.128Z,19.60
2023-03-01T14:22:26.329Z,34.10
2023-03-01T14:25:00.544Z,8.10
2023-03-01T14:27:42.982Z,31.10
2023-03-01T14:30:22.916Z,17.90
2023-03-01T14:33:00.183Z,8.50
2023-03-01T14:35:31.018Z,16.00
2023-03-01T14:37:59.196Z,34.50
2023-03-01T14:40:37.993Z,13.90
2023-03-01T14:43:12.599Z,8.30
2023-03-01T14:45:40.780Z,7.20
2023-03-01T14:48:09.226Z,7.10
2023-03-01T14:50:43.377Z,7.60
2023-03-01T14:53:21.399Z,9.90
2023-03-01T14:55:53.303Z,7.90
2023-03-01T14:58:24.625Z,10.10
2023-03-01T15:01:01.836Z,14.10
2023-03-01T15:03:45.005Z,16.70
2023-03-01T15:06:17.854Z,11.90
2023-03-01T15:08:48.979Z,9.20
2023-03-01T15:11:28.132Z,9.10
2023-03-01T15:13:56.273Z,15.00
2023-03-01T15:16:31.184Z,40.10
2023-03-01T15:19:01.626Z,23.60
2023-03-01T15:21:38.909Z,14.10
2023-03-01T15:24:20.487Z,43.50
2023-03-01T15:27:03.031Z,12.60
2023-03-01T15:29:34.424Z,13.40
2023-03-01T15:32:25.820Z,24.90
2023-03-01T15:34:53.844Z,32.10
2023-03-01T15:37:45.134Z,11.20
2023-03-01T15:40:22.496Z,10.40
2023-03-01T15:42:50.865Z,14.60
2023-03-01T15:45:21.703Z,22.90
2023-03-01T15:47:53.758Z,31.50
2023-03-01T15:50:24.442Z,33.80
2023-03-01T15:52:52.979Z,30.20
2023-03-01T15:55:23.997Z,32.70
2023-03-01T15:58:01.677Z,38.40
2023-03-01T16:00:30.324Z,47.00
2023-03-01T16:02:58.471Z,72.50
2023-03-01T16:05:32.134Z,47.90
2023-03-01T16:08:00.083Z,53.50
2023-03-01T16:10:28.865Z,96.60
2023-03-01T16:12:57.060Z,101.20
2023-03-01T16:15:31.248Z,95.20
2023-03-01T16:18:01.068Z,101.00
2023-03-01T16:20:33.443Z,65.80
2023-03-01T16:23:03.967Z,39.30
2023-03-01T16:25:33.347Z,43.30
2023-03-01T16:28:05.132Z,56.80
2023-03-01T16:30:36.240Z,64.00
2023-03-01T16:33:19.220Z,70.10
2023-03-01T16:35:52.629Z,63.00
2023-03-01T16:38:20.481Z,47.60
2023-03-01T16:40:50.632Z,35.90
2023-03-01T16:43:19.211Z,51.00
2023-03-01T16:45:47.770Z,43.00
2023-03-01T16:48:15.903Z,37.70
2023-03-01T16:50:43.871Z,35.30
2023-03-01T16:53:12.083Z,42.80
2023-03-01T16:55:46.442Z,146.20
2023-03-01T16:58:16.565Z,68.00
2023-03-01T17:00:44.483Z,44.10
2023-03-01T17:03:14.893Z,46.80
2023-03-01T17:05:42.993Z,39.20
2023-03-01T17:08:10.910Z,42.40
2023-03-01T17:10:38.942Z,48.40
2023-03-01T17:13:06.805Z,60.30
2023-03-01T17:15:34.782Z,48.70
2023-03-01T17:18:03.830Z,43.10
2023-03-01T17:20:31.858Z,40.70
2023-03-01T17:22:59.833Z,34.60
2023-03-01T17:25:28.741Z,35.40
2023-03-01T17:27:56.835Z,36.70
2023-03-01T17:30:24.841Z,35.70
2023-03-01T17:32:55.859Z,36.60
2023-03-01T17:35:24.116Z,35.10
2023-03-01T17:37:52.012Z,39.70
2023-03-01T17:40:20.082Z,40.90
2023-03-01T17:42:47.977Z,48.70
2023-03-01T17:45:15.960Z,59.90
2023-03-01T17:47:43.993Z,48.90
2023-03-01T17:50:12.523Z,67.50
2023-03-01T17:52:44.029Z,75.20
2023-03-01T17:55:12.325Z,79.10
2023-03-01T17:57:41.621Z,99.30
2023-03-01T18:00:14.639Z,91.90
2023-03-01T18:02:43.234Z,87.70
2023-03-01T18:05:11.765Z,75.70
2023-03-01T18:07:39.828Z,63.70
2023-03-01T18:10:08.710Z,67.70
2023-03-01T18:12:36.689Z,84.90
2023-03-01T18:15:08.286Z,54.80
2023-03-01T18:17:36.290Z,61.60
2023-03-01T18:20:07.233Z,75.10
2023-03-01T18:22:35.359Z,84.80
2023-03-01T18:25:05.203Z,92.80
2023-03-01T18:27:33.567Z,84.30
2023-03-01T18:30:01.702Z,71.00
2023-03-01T18:32:29.916Z,75.10
2023-03-01T18:34:58.050Z,75.20
2023-03-01T18:37:26.043Z,75.60
2023-03-01T18:39:54.609Z,81.80
2023-03-01T18:42:22.720Z,115.00
2023-03-01T18:44:51.109Z,118.50
2023-03-01T18:47:19.153Z,117.10
2023-03-01T18:49:47.240Z,88.90
2023-03-01T18:52:15.211Z,77.80
2023-03-01T18:54:43.062Z,84.40
2023-03-01T18:57:11.208Z,94.60
2023-03-01T18:59:39.260Z,96.00
2023-03-01T19:02:07.359Z,103.40
2023-03-01T19:04:35.397Z,103.20
2023-03-01T19:07:04.075Z,104.70
2023-03-01T19:09:32.058Z,105.80
2023-03-01T19:12:02.030Z,111.70
2023-03-01T19:14:30.188Z,111.90
2023-03-01T19:16:58.169Z,113.50
2023-03-01T19:19:26.207Z,127.60
2023-03-01T19:22:05.043Z,126.70
2023-03-01T19:24:35.192Z,123.20
2023-03-01T19:27:03.323Z,121.80
2023-03-01T19:29:31.412Z,118.90
2023-03-01T19:31:59.651Z,100.60
2023-03-01T19:34:27.670Z,106.30
2023-03-01T19:36:55.804Z,101.70
2023-03-01T19:39:23.644Z,100.80
2023-03-01T19:41:52.087Z,95.00
2023-03-01T19:44:24.908Z,93.90
2023-03-01T19:46:53.934Z,94.60
2023-03-01T19:49:21.795Z,95.30
2023-03-01T19:51:49.831Z,92.30
2023-03-01T19:54:21.814Z,93.00
2023-03-01T19:56:51.345Z,93.30
2023-03-01T19:59:24.442Z,95.10
2023-03-01T20:01:52.776Z,92.00
2023-03-01T20:04:20.942Z,95.00
2023-03-01T20:06:49.445Z,96.60
2023-03-01T20:09:21.898Z,101.10
2023-03-01T20:11:51.672Z,91.10
2023-03-01T20:14:21.093Z,87.20
2023-03-01T20:16:52.153Z,88.30
2023-03-01T20:19:20.942Z,87.50
2023-03-01T20:21:49.233Z,89.40
2023-03-01T20:24:17.291Z,94.40
2023-03-01T20:26:45.668Z,130.90
2023-03-01T20:29:13.762Z,197.70
2023-03-01T20:31:42.653Z,150.90
2023-03-01T20:34:10.811Z,126.90
2023-03-01T20:36:39.508Z,129.50
2023-03-01T20:39:08.065Z,134.70
2023-03-01T20:41:35.960Z,134.80
2023-03-01T20:44:06.684Z,141.40
2023-03-01T20:46:36.461Z,130.90
2023-03-01T20:49:05.683Z,173.10
2023-03-01T20:51:33.664Z,189.30
2023-03-01T20:54:01.524Z,172.70
2023-03-01T20:56:29.448Z,193.60
2023-03-01T20:59:05.800Z,131.30
2023-03-01T21:01:34.154Z,120.00
2023-03-01T21:04:02.428Z,122.20
2023-03-01T21:06:31.568Z,113.30
2023-03-01T21:08:59.971Z,117.10
2023-03-01T21:11:27.888Z,127.10
2023-03-01T21:13:56.737Z,127.30
2023-03-01T21:16:25.721Z,143.70
2023-03-01T21:18:53.769Z,146.70
2023-03-01T21:21:24.081Z,140.70
2023-03-01T21:23:53.872Z,164.80
2023-03-01T21:26:25.060Z,164.90
2023-03-01T21:28:58.763Z,170.30
2023-03-01T21:31:29.080Z,180.30
2023-03-01T21:34:00.078Z,187.30
2023-03-01T21:36:29.437Z,169.50
2023-03-01T21:39:00.901Z,166.20
2023-03-01T21:41:32.443Z,133.60
2023-03-01T21:44:03.131Z,121.40
2023-03-01T21:46:36.490Z,118.80
2023-03-01T21:49:05.465Z,117.10
2023-03-01T21:51:33.744Z,109.90
2023-03-01T21:54:02.171Z,117.70
2023-03-01T21:56:34.529Z,119.40
2023-03-01T21:59:02.609Z,133.50
2023-03-01T22:01:31.363Z,132.00
2023-03-01T22:04:01.157Z,119.10
2023-03-01T22:06:41.286Z,114.80
2023-03-01T22:09:14.968Z,115.00
2023-03-01T22:11:46.833Z,113.40
2023-03-01T22:14:16.392Z,118.70
2023-03-01T22:16:45.770Z,118.20
2023-03-01T22:19:15.985Z,126.00
2023-03-01T22:21:46.613Z,152.60
2023-03-01T22:24:15.122Z,191.00
2023-03-01T22:26:45.234Z,161.50
2023-03-01T22:29:19.393Z,160.70
2023-03-01T22:31:48.001Z,160.00
2023-03-01T22:34:17.339Z,156.20
2023-03-01T22:36:46.317Z,161.60
2023-03-01T22:39:16.226Z,149.80
2023-03-01T22:41:46.203Z,149.40
2023-03-01T22:44:22.883Z,179.10
2023-03-01T22:46:50.910Z,196.70
2023-03-01T22:49:19.762Z,205.50
2023-03-01T22:51:48.255Z,188.10
2023-03-01T22:54:18.741Z,205.20
2023-03-01T22:56:46.779Z,252.00
2023-03-01T22:59:16.700Z,232.30
2023-03-01T23:01:48.111Z,243.50
2023-03-01T23:04:17.669Z,252.10
2023-03-01T23:06:54.116Z,255.40
2023-03-01T23:09:30.919Z,249.90
2023-03-01T23:12:00.881Z,260.60
2023-03-01T23:14:31.718Z,241.90
2023-03-01T23:17:03.300Z,248.40
2023-03-01T23:19:32.109Z,250.80
2023-03-01T23:22:00.416Z,246.50
2023-03-01T23:24:31.978Z,246.40
2023-03-01T23:27:02.165Z,252.10
2023-03-01T23:29:31.242Z,263.70
2023-03-01T23:32:00.143Z,253.70
2023-03-01T23:34:28.935Z,231.20
2023-03-01T23:36:58.146Z,224.70
2023-03-01T23:39:26.368Z,214.70
2023-03-01T23:41:54.175Z,209.20
2023-03-01T23:44:23.165Z,209.70
2023-03-01T23:46:51.319Z,186.00
2023-03-01T23:49:22.408Z,174.00
2023-03-01T23:51:50.788Z,177.60
2023-03-01T23:54:22.423Z,174.80
2023-03-01T23:56:50.443Z,177.90
2023-03-01T23:59:21.973Z,180.20
